createdAt,value
2023-06-08T00:00:27.091Z,100.00
2023-06-08T00:03:34.460Z,100.00
2023-06-08T00:06:45.642Z,100.00
2023-06-08T00:09:52.755Z,100.00
2023-06-08T00:12:59.240Z,100.00
2023-06-08T00:16:05.701Z,100.00
2023-06-08T00:19:12.155Z,100.00
2023-06-08T00:22:19.781Z,100.00
2023-06-08T00:25:25.848Z,100.00
2023-06-08T00:28:31.965Z,100.00
2023-06-08T00:31:39.139Z,100.00
2023-06-08T00:34:45.813Z,100.00
2023-06-08T00:37:54.243Z,100.00
2023-06-08T00:41:00.693Z,100.00
2023-06-08T00:44:08.177Z,100.00
2023-06-08T00:47:18.086Z,100.00
2023-06-08T00:50:25.890Z,100.00
2023-06-08T00:53:34.654Z,100.00
2023-06-08T00:56:42.207Z,100.00
2023-06-08T00:59:50.973Z,100.00
2023-06-08T01:02:57.723Z,100.00
2023-06-08T01:06:09.552Z,100.00
2023-06-08T01:09:27.661Z,100.00
2023-06-08T01:12:43.855Z,100.00
2023-06-08T01:15:54.348Z,100.00
2023-06-08T01:19:09.869Z,100.00
2023-06-08T01:22:23.630Z,100.00
2023-06-08T01:25:34.429Z,100.00
2023-06-08T01:28:41.263Z,100.00
2023-06-08T01:31:47.586Z,100.00
2023-06-08T01:34:54.151Z,100.00
2023-06-08T01:38:11.091Z,100.00
2023-06-08T01:41:23.055Z,100.00
2023-06-08T01:44:31.709Z,100.00
2023-06-08T01:47:42.234Z,100.00
2023-06-08T01:50:50.632Z,100.00
2023-06-08T01:54:02.635Z,100.00
2023-06-08T01:57:10.732Z,100.00
2023-06-08T02:00:19.250Z,100.00
2023-06-08T02:03:26.118Z,100.00
2023-06-08T02:06:32.330Z,100.00
2023-06-08T02:09:38.512Z,100.00
2023-06-08T02:12:46.170Z,100.00
2023-06-08T02:15:54.671Z,100.00
2023-06-08T02:19:02.588Z,100.00
2023-06-08T02:22:09.119Z,100.00
2023-06-08T02:25:15.364Z,100.00
2023-06-08T02:28:23.157Z,100.00
2023-06-08T02:31:29.454Z,100.00
2023-06-08T02:34:39.163Z,100.00
2023-06-08T02:37:45.808Z,100.00
2023-06-08T02:40:52.500Z,100.00
2023-06-08T02:44:00.184Z,100.00
2023-06-08T02:47:07.093Z,100.00
2023-06-08T02:50:13.286Z,100.00
2023-06-08T02:53:19.370Z,100.00
2023-06-08T02:56:26.739Z,100.00
2023-06-08T02:59:34.759Z,100.00
2023-06-08T03:02:41.241Z,100.00
2023-06-08T03:05:47.610Z,100.00
2023-06-08T03:08:55.576Z,100.00
2023-06-08T03:12:02.404Z,100.00
2023-06-08T03:15:11.903Z,100.00
2023-06-08T03:18:18.780Z,100.00
2023-06-08T03:21:29.976Z,100.00
2023-06-08T03:24:36.427Z,100.00
2023-06-08T03:27:42.536Z,100.00
2023-06-08T03:30:50.139Z,100.00
2023-06-08T03:33:56.422Z,100.00
2023-06-08T03:37:02.878Z,100.00
2023-06-08T03:40:10.526Z,100.00
2023-06-08T03:43:17.085Z,100.00
2023-06-08T03:46:25.433Z,100.00
2023-06-08T03:49:31.894Z,100.00
2023-06-08T03:52:39.340Z,100.00
2023-06-08T03:55:46.045Z,100.00
2023-06-08T03:58:52.966Z,100.00
2023-06-08T04:02:01.152Z,100.00
2023-06-08T04:05:08.756Z,100.00
2023-06-08T04:08:15.797Z,100.00
2023-06-08T04:11:22.306Z,100.00
2023-06-08T04:14:28.925Z,100.00
2023-06-08T04:17:36.558Z,100.00
2023-06-08T04:20:43.432Z,100.00
2023-06-08T04:23:50.240Z,100.00
2023-06-08T04:26:56.702Z,100.00
2023-06-08T04:30:03.677Z,100.00
2023-06-08T04:33:11.748Z,100.00
2023-06-08T04:36:18.824Z,100.00
2023-06-08T04:39:25.698Z,100.00
2023-06-08T04:42:33.694Z,100.00
2023-06-08T04:45:40.320Z,100.00
2023-06-08T04:48:49.846Z,100.00
2023-06-08T04:51:56.831Z,100.00
2023-06-08T04:55:03.421Z,100.00
2023-06-08T04:58:09.911Z,100.00
2023-06-08T05:01:16.076Z,100.00
2023-06-08T05:04:23.885Z,100.00
2023-06-08T05:07:30.302Z,100.00
2023-06-08T05:10:36.344Z,100.00
2023-06-08T05:13:42.482Z,100.00
2023-06-08T05:16:48.662Z,100.00
2023-06-08T05:19:56.415Z,100.00
2023-06-08T05:23:02.710Z,100.00
2023-06-08T05:26:09.168Z,100.00
2023-06-08T05:29:15.423Z,100.00
2023-06-08T05:32:22.904Z,100.00
2023-06-08T05:35:30.913Z,100.00
2023-06-08T05:38:37.400Z,100.00
2023-06-08T05:41:44.431Z,96.44
2023-06-08T05:44:51.945Z,98.50
2023-06-08T05:47:58.229Z,97.92
2023-06-08T05:51:05.914Z,97.64
2023-06-08T05:54:12.526Z,98.91
2023-06-08T05:57:18.896Z,93.18
2023-06-08T06:00:25.367Z,94.24
2023-06-08T06:03:31.849Z,91.86
2023-06-08T06:06:39.388Z,90.52
2023-06-08T06:09:46.129Z,88.11
2023-06-08T06:12:52.434Z,87.61
2023-06-08T06:15:58.663Z,83.82
2023-06-08T06:19:04.700Z,90.65
2023-06-08T06:22:12.891Z,93.26
2023-06-08T06:25:20.138Z,89.83
2023-06-08T06:28:26.544Z,91.67
2023-06-08T06:31:33.435Z,91.07
2023-06-08T06:34:40.069Z,94.48
2023-06-08T06:37:48.029Z,87.31
2023-06-08T06:40:54.764Z,92.18
2023-06-08T06:44:01.165Z,87.48
2023-06-08T06:47:08.469Z,86.88
2023-06-08T06:50:14.975Z,90.59
2023-06-08T06:53:22.642Z,85.03
2023-06-08T06:56:29.171Z,80.46
2023-06-08T06:59:35.621Z,80.91
2023-06-08T07:02:42.376Z,82.47
2023-06-08T07:05:48.831Z,83.63
2023-06-08T07:08:56.571Z,81.21
2023-06-08T07:12:15.302Z,75.81
2023-06-08T07:15:23.424Z,74.04
2023-06-08T07:18:29.628Z,71.96
2023-06-08T07:21:49.052Z,68.35
2023-06-08T07:25:33.962Z,67.41
2023-06-08T07:28:35.184Z,70.83
2023-06-08T07:31:41.364Z,66.71
2023-06-08T07:37:54.127Z,63.43
2023-06-08T07:41:01.875Z,61.70
2023-06-08T07:44:08.494Z,61.21
2023-06-08T07:47:15.518Z,58.75
2023-06-08T07:50:22.191Z,59.59
2023-06-08T07:53:36.978Z,59.24
2023-06-08T07:56:44.796Z,57.39
2023-06-08T07:59:51.231Z,56.17
2023-06-08T08:02:57.919Z,59.22
2023-06-08T08:06:04.670Z,57.23
2023-06-08T08:09:10.996Z,55.47
2023-06-08T08:12:18.855Z,56.71
2023-06-08T08:15:25.424Z,59.14
2023-06-08T08:18:31.810Z,58.45
2023-06-08T08:21:38.078Z,55.50
2023-06-08T08:24:44.636Z,53.72
2023-06-08T08:27:52.244Z,53.78
2023-06-08T08:31:00.533Z,50.95
2023-06-08T08:34:07.143Z,50.49
2023-06-08T08:37:14.380Z,50.19
2023-06-08T08:40:21.298Z,48.42
2023-06-08T08:43:34.090Z,49.37
2023-06-08T08:46:44.402Z,51.30
2023-06-08T08:49:58.933Z,52.24
2023-06-08T08:53:06.370Z,51.26
2023-06-08T08:56:13.355Z,50.44
2023-06-08T08:59:21.190Z,52.12
2023-06-08T09:02:28.476Z,49.67
2023-06-08T09:05:35.663Z,48.12
2023-06-08T09:08:42.192Z,45.94
2023-06-08T09:11:59.271Z,45.92
2023-06-08T09:15:09.262Z,46.00
2023-06-08T09:18:20.595Z,43.31
2023-06-08T09:21:28.875Z,46.26
2023-06-08T09:24:35.350Z,43.42
2023-06-08T09:27:42.203Z,45.42
2023-06-08T09:30:51.352Z,45.27
2023-06-08T09:34:07.707Z,44.93
2023-06-08T09:37:15.588Z,44.85
2023-06-08T09:40:25.733Z,43.96
2023-06-08T09:43:33.644Z,42.28
2023-06-08T09:46:42.689Z,44.50
2023-06-08T09:49:50.422Z,41.83
2023-06-08T09:52:57.398Z,43.42
2023-06-08T09:56:06.874Z,42.76
2023-06-08T09:59:17.657Z,41.70
2023-06-08T10:02:32.772Z,42.82
2023-06-08T10:05:43.269Z,43.86
2023-06-08T10:08:54.061Z,42.80
2023-06-08T10:12:02.250Z,43.07
2023-06-08T10:15:10.720Z,42.42
2023-06-08T10:18:19.381Z,42.55
2023-06-08T10:21:28.279Z,41.56
2023-06-08T10:24:36.163Z,42.79
2023-06-08T10:27:50.026Z,43.08
2023-06-08T10:30:56.627Z,42.53
2023-06-08T10:34:09.834Z,42.12
2023-06-08T10:37:30.092Z,41.57
2023-06-08T10:40:43.676Z,45.09
2023-06-08T10:44:00.927Z,44.06
2023-06-08T10:47:08.908Z,43.12
2023-06-08T10:50:21.346Z,41.83
2023-06-08T10:53:42.672Z,41.91
2023-06-08T10:57:08.687Z,43.19
2023-06-08T11:00:47.371Z,43.60
2023-06-08T11:03:53.924Z,42.67
2023-06-08T11:07:07.312Z,43.83
2023-06-08T11:10:13.445Z,41.29
2023-06-08T11:13:20.230Z,42.43
2023-06-08T11:19:40.148Z,43.23
2023-06-08T11:22:47.769Z,41.52
2023-06-08T11:25:54.271Z,39.02
2023-06-08T11:29:03.240Z,38.65
2023-06-08T11:32:12.498Z,41.96
2023-06-08T11:35:20.763Z,39.23
2023-06-08T11:38:28.818Z,39.45
2023-06-08T11:41:35.749Z,39.48
2023-06-08T11:44:42.623Z,39.61
2023-06-08T11:47:58.764Z,38.58
2023-06-08T11:51:12.925Z,37.50
2023-06-08T11:54:21.895Z,37.14
2023-06-08T11:57:41.492Z,37.50
2023-06-08T12:00:48.154Z,38.31
2023-06-08T12:03:54.277Z,38.34
2023-06-08T12:07:00.643Z,39.86
2023-06-08T12:10:10.057Z,42.66
2023-06-08T12:13:20.309Z,41.85
2023-06-08T12:16:26.720Z,39.34
2023-06-08T12:19:33.271Z,37.44
2023-06-08T12:22:39.851Z,38.84
2023-06-08T12:25:47.620Z,40.30
2023-06-08T12:28:54.859Z,40.61
2023-06-08T12:32:01.171Z,41.21
2023-06-08T12:35:08.020Z,41.41
2023-06-08T12:38:14.876Z,40.58
2023-06-08T12:41:24.036Z,41.31
2023-06-08T12:44:30.402Z,42.18
2023-06-08T12:47:36.730Z,42.39
2023-06-08T12:50:43.211Z,44.04
2023-06-08T12:53:49.420Z,43.01
2023-06-08T12:56:56.983Z,42.83
2023-06-08T13:00:04.045Z,44.06
2023-06-08T13:03:11.464Z,43.76
2023-06-08T13:06:18.102Z,40.43
2023-06-08T13:09:24.406Z,42.36
2023-06-08T13:12:32.523Z,40.44
2023-06-08T13:15:39.561Z,41.08
2023-06-08T13:18:46.117Z,41.23
2023-06-08T13:21:52.851Z,43.13
2023-06-08T13:24:59.245Z,43.68
2023-06-08T13:28:08.722Z,42.62
2023-06-08T13:31:15.225Z,43.69
2023-06-08T13:34:21.595Z,43.35
2023-06-08T13:37:28.382Z,43.92
2023-06-08T13:40:36.380Z,45.09
2023-06-08T13:43:45.514Z,45.32
2023-06-08T13:46:52.170Z,44.73
2023-06-08T13:50:00.797Z,45.89
2023-06-08T13:53:07.042Z,46.20
2023-06-08T13:56:13.392Z,46.87
2023-06-08T13:59:21.516Z,48.59
2023-06-08T14:02:27.800Z,50.31
2023-06-08T14:05:34.698Z,53.62
2023-06-08T14:08:40.919Z,57.53
2023-06-08T14:11:47.448Z,59.23
2023-06-08T14:14:55.272Z,60.25
2023-06-08T14:18:02.009Z,62.79
2023-06-08T14:21:09.175Z,67.80
2023-06-08T14:24:15.696Z,69.46
2023-06-08T14:27:22.179Z,69.20
2023-06-08T14:30:29.722Z,71.20
2023-06-08T14:33:36.187Z,71.32
2023-06-08T14:36:42.508Z,70.57
2023-06-08T14:39:48.754Z,68.45
2023-06-08T14:42:55.050Z,66.83
2023-06-08T14:46:02.681Z,64.86
2023-06-08T14:49:09.373Z,60.84
2023-06-08T14:52:15.730Z,61.45
2023-06-08T14:55:22.406Z,59.99
2023-06-08T14:58:28.605Z,59.47
2023-06-08T15:01:38.038Z,64.32
2023-06-08T15:04:44.326Z,57.70
2023-06-08T15:07:50.430Z,60.28
2023-06-08T15:10:56.627Z,61.75
2023-06-08T15:14:02.980Z,61.47
2023-06-08T15:17:11.331Z,63.88
2023-06-08T15:20:17.910Z,62.36
2023-06-08T15:23:24.060Z,61.54
2023-06-08T15:26:30.620Z,62.60
2023-06-08T15:29:37.274Z,61.91
2023-06-08T15:32:44.991Z,62.50
2023-06-08T15:35:51.407Z,62.20
2023-06-08T15:38:57.644Z,62.36
2023-06-08T15:42:03.940Z,60.79
2023-06-08T15:45:11.470Z,63.63
2023-06-08T15:48:19.298Z,65.08
2023-06-08T15:51:30.332Z,60.10
2023-06-08T15:54:37.166Z,60.23
2023-06-08T15:57:43.339Z,62.50
2023-06-08T16:00:49.543Z,63.06
2023-06-08T16:03:57.201Z,61.11
2023-06-08T16:07:03.709Z,63.10
2023-06-08T16:10:10.726Z,67.38
2023-06-08T16:13:17.886Z,70.18
2023-06-08T16:16:25.041Z,75.49
2023-06-08T16:19:32.921Z,82.32
2023-06-08T16:22:40.593Z,81.79
2023-06-08T16:25:46.880Z,89.32
2023-06-08T16:28:53.071Z,84.21
2023-06-08T16:31:59.384Z,84.40
2023-06-08T16:35:07.883Z,87.50
2023-06-08T16:38:14.374Z,85.98
2023-06-08T16:41:21.648Z,86.98
2023-06-08T16:44:28.237Z,88.29
2023-06-08T16:47:35.145Z,90.45
2023-06-08T16:50:42.858Z,97.36
2023-06-08T16:53:49.374Z,98.55
2023-06-08T16:56:55.652Z,98.48
2023-06-08T17:00:05.279Z,99.71
2023-06-08T17:03:11.816Z,100.00
2023-06-08T17:06:19.636Z,100.00
2023-06-08T17:09:26.693Z,98.89
2023-06-08T17:12:33.079Z,100.00
2023-06-08T17:15:39.343Z,100.00
2023-06-08T17:18:45.792Z,100.00
2023-06-08T17:21:53.575Z,97.83
2023-06-08T17:25:00.880Z,93.93
2023-06-08T17:28:07.818Z,92.45
2023-06-08T17:31:14.705Z,86.55
2023-06-08T17:34:21.282Z,85.77
2023-06-08T17:37:29.185Z,88.01
2023-06-08T17:40:35.624Z,83.26
2023-06-08T17:43:49.348Z,81.20
2023-06-08T17:46:55.835Z,80.03
2023-06-08T17:50:02.897Z,81.50
2023-06-08T17:53:12.639Z,82.19
2023-06-08T17:56:21.525Z,84.38
2023-06-08T17:59:27.967Z,84.85
2023-06-08T18:02:34.372Z,82.53
2023-06-08T18:05:41.490Z,83.94
2023-06-08T18:08:50.182Z,85.24
2023-06-08T18:11:56.301Z,85.60
2023-06-08T18:15:02.422Z,90.22
2023-06-08T18:18:08.915Z,99.96
2023-06-08T18:21:15.288Z,100.00
2023-06-08T18:24:23.326Z,100.00
2023-06-08T18:27:29.926Z,100.00
2023-06-08T18:30:36.070Z,100.00
2023-06-08T18:33:42.282Z,100.00
2023-06-08T18:36:48.682Z,100.00
2023-06-08T18:39:59.182Z,100.00
2023-06-08T18:43:05.834Z,100.00
2023-06-08T18:46:12.179Z,100.00
2023-06-08T18:49:21.089Z,100.00
2023-06-08T18:52:27.786Z,100.00
2023-06-08T18:55:35.403Z,100.00
2023-06-08T18:58:41.891Z,100.00
2023-06-08T19:01:48.204Z,100.00
2023-06-08T19:04:54.521Z,100.00
2023-06-08T19:08:00.880Z,100.00
2023-06-08T19:11:08.472Z,100.00
2023-06-08T19:14:14.873Z,100.00
2023-06-08T19:17:21.328Z,100.00
2023-06-08T19:20:29.509Z,100.00
2023-06-08T19:23:36.151Z,100.00
2023-06-08T19:26:43.854Z,100.00
2023-06-08T19:29:50.528Z,100.00
2023-06-08T19:32:57.134Z,100.00
2023-06-08T19:36:03.935Z,100.00
2023-06-08T19:39:10.639Z,100.00
2023-06-08T19:42:18.428Z,100.00
2023-06-08T19:45:24.745Z,100.00
2023-06-08T19:48:31.261Z,100.00
2023-06-08T19:51:37.643Z,100.00
2023-06-08T19:54:44.102Z,100.00
2023-06-08T19:57:52.057Z,100.00
2023-06-08T20:00:58.712Z,100.00
2023-06-08T20:04:05.257Z,100.00
2023-06-08T20:07:14.313Z,100.00
2023-06-08T20:10:20.662Z,100.00
2023-06-08T20:13:28.270Z,100.00
2023-06-08T20:16:34.871Z,100.00
2023-06-08T20:19:41.169Z,100.00
2023-06-08T20:22:47.223Z,100.00
2023-06-08T20:25:53.445Z,100.00
2023-06-08T20:29:01.775Z,100.00
2023-06-08T20:32:10.040Z,100.00
2023-06-08T20:35:16.860Z,100.00
2023-06-08T20:38:22.890Z,100.00
2023-06-08T20:41:29.060Z,100.00
2023-06-08T20:44:37.365Z,100.00
2023-06-08T20:47:43.575Z,100.00
2023-06-08T20:50:49.805Z,100.00
2023-06-08T20:53:56.309Z,100.00
2023-06-08T20:57:02.703Z,100.00
2023-06-08T21:00:12.391Z,100.00
2023-06-08T21:03:18.630Z,100.00
2023-06-08T21:06:25.534Z,100.00
2023-06-08T21:09:32.169Z,100.00
2023-06-08T21:12:38.690Z,100.00
2023-06-08T21:15:46.658Z,100.00
2023-06-08T21:18:53.184Z,100.00
2023-06-08T21:21:59.577Z,100.00
2023-06-08T21:25:06.792Z,100.00
2023-06-08T21:28:13.963Z,100.00
2023-06-08T21:31:21.825Z,100.00
2023-06-08T21:34:28.488Z,100.00
2023-06-08T21:37:34.742Z,100.00
2023-06-08T21:40:41.011Z,100.00
2023-06-08T21:43:47.122Z,100.00
2023-06-08T21:46:54.716Z,100.00
2023-06-08T21:50:01.189Z,100.00
2023-06-08T21:53:10.886Z,100.00
2023-06-08T21:56:17.075Z,100.00
2023-06-08T21:59:23.577Z,100.00
2023-06-08T22:02:31.497Z,100.00
2023-06-08T22:05:38.164Z,100.00
2023-06-08T22:08:44.858Z,100.00
2023-06-08T22:11:51.943Z,100.00
2023-06-08T22:14:59.890Z,100.00
2023-06-08T22:18:08.177Z,100.00
2023-06-08T22:21:14.671Z,100.00
2023-06-08T22:24:21.305Z,100.00
2023-06-08T22:27:27.552Z,100.00
2023-06-08T22:30:35.921Z,100.00
2023-06-08T22:33:45.959Z,100.00
2023-06-08T22:36:52.546Z,100.00
2023-06-08T22:39:58.712Z,100.00
2023-06-08T22:43:05.828Z,100.00
2023-06-08T22:49:20.217Z,100.00
2023-06-08T22:52:29.787Z,100.00
2023-06-08T22:55:35.948Z,100.00
2023-06-08T22:58:42.121Z,100.00
2023-06-08T23:01:48.493Z,100.00
2023-06-08T23:04:56.382Z,100.00
2023-06-08T23:08:03.206Z,100.00
2023-06-08T23:11:09.532Z,100.00
2023-06-08T23:14:17.592Z,100.00
2023-06-08T23:17:26.542Z,100.00
2023-06-08T23:20:34.268Z,100.00
2023-06-08T23:23:41.086Z,100.00
2023-06-08T23:26:47.383Z,100.00
2023-06-08T23:29:53.590Z,100.00
2023-06-08T23:33:00.051Z,100.00
2023-06-08T23:36:08.349Z,100.00
2023-06-08T23:39:14.964Z,100.00
2023-06-08T23:42:21.823Z,100.00
2023-06-08T23:45:28.605Z,100.00
2023-06-08T23:48:35.066Z,100.00
2023-06-08T23:51:42.919Z,100.00
2023-06-08T23:54:49.441Z,100.00
2023-06-08T23:57:56.053Z,100.00
